sensor_id;sensor_type;location;lat;lon;timestamp;pressure;altitude;pressure_sealevel;temperature;humidity
61710;BME280;73500;51.494;5.386;2023-12-20T00:01:48;101556.72;;;18.91;43.98
61710;BME280;73500;51.494;5.386;2023-12-20T00:04:14;101547.97;;;18.91;43.91
61710;BME280;73500;51.494;5.386;2023-12-20T00:06:39;101556.00;;;18.89;43.72
61710;BME280;73500;51.494;5.386;2023-12-20T00:09:05;101555.69;;;18.81;43.81
61710;BME280;73500;51.494;5.386;2023-12-20T00:11:30;101554.97;;;18.79;43.47
61710;BME280;73500;51.494;5.386;2023-12-20T00:13:55;101554.00;;;18.80;43.69
61710;BME280;73500;51.494;5.386;2023-12-20T00:16:20;101549.06;;;18.75;43.57
61710;BME280;73500;51.494;5.386;2023-12-20T00:18:46;101560.03;;;18.82;43.61
61710;BME280;73500;51.494;5.386;2023-12-20T00:21:11;101560.47;;;18.76;43.42
61710;BME280;73500;51.494;5.386;2023-12-20T00:23:37;101564.69;;;18.78;43.34
61710;BME280;73500;51.494;5.386;2023-12-20T00:26:02;101556.38;;;18.72;43.45
61710;BME280;73500;51.494;5.386;2023-12-20T00:28:27;101565.75;;;18.76;43.38
61710;BME280;73500;51.494;5.386;2023-12-20T00:30:53;101562.16;;;18.77;43.38
61710;BME280;73500;51.494;5.386;2023-12-20T00:33:18;101543.72;;;18.64;43.34
61710;BME280;73500;51.494;5.386;2023-12-20T00:35:44;101546.25;;;18.65;43.20
61710;BME280;73500;51.494;5.386;2023-12-20T00:38:09;101555.53;;;18.71;43.12
61710;BME280;73500;51.494;5.386;2023-12-20T00:40:35;101536.13;;;18.59;43.20
61710;BME280;73500;51.494;5.386;2023-12-20T00:43:00;101537.00;;;18.60;43.13
61710;BME280;73500;51.494;5.386;2023-12-20T00:45:25;101547.94;;;18.66;43.23
61710;BME280;73500;51.494;5.386;2023-12-20T00:47:51;101542.06;;;18.63;43.07
61710;BME280;73500;51.494;5.386;2023-12-20T00:50:16;101536.66;;;18.64;43.20
61710;BME280;73500;51.494;5.386;2023-12-20T00:52:41;101540.25;;;18.63;43.01
61710;BME280;73500;51.494;5.386;2023-12-20T00:55:07;101550.81;;;18.63;42.96
61710;BME280;73500;51.494;5.386;2023-12-20T00:57:32;101532.88;;;18.56;42.87
61710;BME280;73500;51.494;5.386;2023-12-20T00:59:58;101539.41;;;18.63;42.91
61710;BME280;73500;51.494;5.386;2023-12-20T01:02:23;101530.22;;;18.56;42.85
61710;BME280;73500;51.494;5.386;2023-12-20T01:04:48;101524.44;;;18.51;42.70
61710;BME280;73500;51.494;5.386;2023-12-20T01:07:14;101528.03;;;18.49;42.88
61710;BME280;73500;51.494;5.386;2023-12-20T01:09:39;101533.31;;;18.49;42.56
61710;BME280;73500;51.494;5.386;2023-12-20T01:12:05;101537.22;;;18.57;42.72
61710;BME280;73500;51.494;5.386;2023-12-20T01:14:30;101540.78;;;18.56;42.51
61710;BME280;73500;51.494;5.386;2023-12-20T01:16:55;101546.91;;;18.56;42.67
61710;BME280;73500;51.494;5.386;2023-12-20T01:19:21;101559.50;;;18.53;42.58
61710;BME280;73500;51.494;5.386;2023-12-20T01:21:46;101556.75;;;18.54;42.86
61710;BME280;73500;51.494;5.386;2023-12-20T01:24:12;101538.19;;;18.43;42.72
61710;BME280;73500;51.494;5.386;2023-12-20T01:26:37;101547.06;;;18.42;42.50
61710;BME280;73500;51.494;5.386;2023-12-20T01:29:02;101549.59;;;18.43;42.30
61710;BME280;73500;51.494;5.386;2023-12-20T01:31:28;101544.53;;;18.40;42.62
61710;BME280;73500;51.494;5.386;2023-12-20T01:33:53;101544.53;;;18.40;42.35
61710;BME280;73500;51.494;5.386;2023-12-20T01:36:18;101570.38;;;18.48;42.65
61710;BME280;73500;51.494;5.386;2023-12-20T01:38:44;101558.16;;;18.47;42.40
61710;BME280;73500;51.494;5.386;2023-12-20T01:41:10;101563.53;;;18.45;42.36
61710;BME280;73500;51.494;5.386;2023-12-20T01:43:36;101533.88;;;18.29;42.34
61710;BME280;73500;51.494;5.386;2023-12-20T01:46:02;101557.41;;;18.45;42.38
61710;BME280;73500;51.494;5.386;2023-12-20T01:48:28;101554.13;;;18.41;42.55
61710;BME280;73500;51.494;5.386;2023-12-20T01:50:54;101542.34;;;18.34;42.44
61710;BME280;73500;51.494;5.386;2023-12-20T01:53:21;101556.78;;;18.41;42.34
61710;BME280;73500;51.494;5.386;2023-12-20T01:55:50;101538.13;;;18.31;42.38
61710;BME280;73500;51.494;5.386;2023-12-20T01:58:17;101563.00;;;18.40;42.21
61710;BME280;73500;51.494;5.386;2023-12-20T02:00:44;101553.00;;;18.33;42.35
61710;BME280;73500;51.494;5.386;2023-12-20T02:03:09;101554.47;;;18.37;42.36
61710;BME280;73500;51.494;5.386;2023-12-20T02:05:35;101540.03;;;18.29;42.19
61710;BME280;73500;51.494;5.386;2023-12-20T02:08:02;101551.00;;;18.36;42.11
61710;BME280;73500;51.494;5.386;2023-12-20T02:10:27;101534.88;;;18.28;42.12
61710;BME280;73500;51.494;5.386;2023-12-20T02:12:52;101539.28;;;18.27;42.39
61710;BME280;73500;51.494;5.386;2023-12-20T02:15:18;101560.69;;;18.36;42.36
61710;BME280;73500;51.494;5.386;2023-12-20T02:17:44;101565.22;;;18.34;42.20
61710;BME280;73500;51.494;5.386;2023-12-20T02:20:10;101551.63;;;18.27;42.15
61710;BME280;73500;51.494;5.386;2023-12-20T02:22:37;101567.03;;;18.33;42.18
61710;BME280;73500;51.494;5.386;2023-12-20T02:25:02;101549.31;;;18.22;42.01
61710;BME280;73500;51.494;5.386;2023-12-20T02:27:29;101565.34;;;18.32;42.28
61710;BME280;73500;51.494;5.386;2023-12-20T02:29:55;101552.47;;;18.27;42.05
61710;BME280;73500;51.494;5.386;2023-12-20T02:32:21;101538.97;;;18.19;42.11
61710;BME280;73500;51.494;5.386;2023-12-20T02:34:48;101553.22;;;18.29;41.96
61710;BME280;73500;51.494;5.386;2023-12-20T02:37:13;101554.16;;;18.28;42.06
61710;BME280;73500;51.494;5.386;2023-12-20T02:39:39;101537.28;;;18.18;42.05
61710;BME280;73500;51.494;5.386;2023-12-20T02:42:04;101543.31;;;18.20;41.87
61710;BME280;73500;51.494;5.386;2023-12-20T02:44:29;101549.31;;;18.22;42.15
61710;BME280;73500;51.494;5.386;2023-12-20T02:46:54;101542.69;;;18.17;42.30
61710;BME280;73500;51.494;5.386;2023-12-20T02:49:20;101544.56;;;18.15;41.75
61710;BME280;73500;51.494;5.386;2023-12-20T02:51:46;101535.84;;;18.14;41.98
61710;BME280;73500;51.494;5.386;2023-12-20T02:54:12;101552.78;;;18.23;42.09
61710;BME280;73500;51.494;5.386;2023-12-20T02:56:37;101556.41;;;18.22;41.96
61710;BME280;73500;51.494;5.386;2023-12-20T02:59:02;101553.88;;;18.20;41.87
61710;BME280;73500;51.494;5.386;2023-12-20T03:01:30;101539.50;;;18.11;42.00
61710;BME280;73500;51.494;5.386;2023-12-20T03:03:55;101544.56;;;18.15;42.15
61710;BME280;73500;51.494;5.386;2023-12-20T03:06:21;101534.25;;;18.11;42.03
61710;BME280;73500;51.494;5.386;2023-12-20T03:08:46;101546.91;;;18.19;41.90
61710;BME280;73500;51.494;5.386;2023-12-20T03:11:11;101534.13;;;18.13;42.02
61710;BME280;73500;51.494;5.386;2023-12-20T03:13:37;101550.38;;;18.20;41.88
61710;BME280;73500;51.494;5.386;2023-12-20T03:16:12;101538.16;;;18.19;41.98
61710;BME280;73500;51.494;5.386;2023-12-20T03:18:38;101543.44;;;18.19;41.97
61710;BME280;73500;51.494;5.386;2023-12-20T03:21:06;101536.56;;;18.16;41.85
61710;BME280;73500;51.494;5.386;2023-12-20T03:23:31;101539.91;;;18.18;41.80
61710;BME280;73500;51.494;5.386;2023-12-20T03:25:59;101519.59;;;18.07;42.00
61710;BME280;73500;51.494;5.386;2023-12-20T03:28:24;101540.06;;;18.17;41.71
61710;BME280;73500;51.494;5.386;2023-12-20T03:30:50;101536.44;;;18.18;41.81
61710;BME280;73500;51.494;5.386;2023-12-20T03:33:15;101535.84;;;18.14;41.93
61710;BME280;73500;51.494;5.386;2023-12-20T03:35:40;101510.94;;;18.05;41.75
61710;BME280;73500;51.494;5.386;2023-12-20T03:38:06;101521.16;;;18.10;41.58
61710;BME280;73500;51.494;5.386;2023-12-20T03:40:31;101513.47;;;18.07;41.63
61710;BME280;73500;51.494;5.386;2023-12-20T03:42:57;101502.28;;;18.03;41.73
61710;BME280;73500;51.494;5.386;2023-12-20T03:45:22;101519.28;;;18.12;41.67
61710;BME280;73500;51.494;5.386;2023-12-20T03:47:47;101523.69;;;18.11;41.80
61710;BME280;73500;51.494;5.386;2023-12-20T03:50:13;101496.41;;;18.00;41.90
61710;BME280;73500;51.494;5.386;2023-12-20T03:52:39;101504.09;;;18.03;41.93
61710;BME280;73500;51.494;5.386;2023-12-20T03:55:04;101532.56;;;18.10;41.58
61710;BME280;73500;51.494;5.386;2023-12-20T03:57:30;101510.41;;;18.00;42.05
61710;BME280;73500;51.494;5.386;2023-12-20T03:59:55;101530.88;;;18.09;41.92
61710;BME280;73500;51.494;5.386;2023-12-20T04:02:20;101517.50;;;18.00;41.65
61710;BME280;73500;51.494;5.386;2023-12-20T04:04:46;101531.09;;;18.06;41.94
61710;BME280;73500;51.494;5.386;2023-12-20T04:07:11;101530.97;;;18.08;41.72
61710;BME280;73500;51.494;5.386;2023-12-20T04:09:36;101527.63;;;18.06;41.95
61710;BME280;73500;51.494;5.386;2023-12-20T04:12:02;101522.44;;;18.04;41.91
61710;BME280;73500;51.494;5.386;2023-12-20T04:14:27;101512.31;;;17.98;41.93
61710;BME280;73500;51.494;5.386;2023-12-20T04:16:53;101520.25;;;17.98;41.67
61710;BME280;73500;51.494;5.386;2023-12-20T04:19:18;101511.72;;;17.94;41.80
61710;BME280;73500;51.494;5.386;2023-12-20T04:21:44;101527.72;;;18.04;41.78
61710;BME280;73500;51.494;5.386;2023-12-20T04:24:09;101516.00;;;17.95;41.81
61710;BME280;73500;51.494;5.386;2023-12-20T04:26:34;101521.59;;;18.04;41.82
61710;BME280;73500;51.494;5.386;2023-12-20T04:29:00;101528.78;;;18.02;41.91
61710;BME280;73500;51.494;5.386;2023-12-20T04:31:25;101520.25;;;17.98;41.69
61710;BME280;73500;51.494;5.386;2023-12-20T04:33:50;101509.06;;;17.94;42.09
61710;BME280;73500;51.494;5.386;2023-12-20T04:36:16;101513.59;;;17.92;41.96
61710;BME280;73500;51.494;5.386;2023-12-20T04:38:41;101526.56;;;17.95;41.88
61710;BME280;73500;51.494;5.386;2023-12-20T04:41:06;101512.75;;;17.92;42.06
61710;BME280;73500;51.494;5.386;2023-12-20T04:43:32;101527.22;;;17.99;41.92
61710;BME280;73500;51.494;5.386;2023-12-20T04:45:57;101533.22;;;18.01;42.06
61710;BME280;73500;51.494;5.386;2023-12-20T04:48:22;101510.94;;;17.92;41.92
61710;BME280;73500;51.494;5.386;2023-12-20T04:50:48;101525.94;;;17.92;42.00
61710;BME280;73500;51.494;5.386;2023-12-20T04:53:13;101535.97;;;18.00;42.08
61710;BME280;73500;51.494;5.386;2023-12-20T04:55:38;101532.59;;;17.98;41.93
61710;BME280;73500;51.494;5.386;2023-12-20T04:58:04;101533.53;;;17.97;41.83
61710;BME280;73500;51.494;5.386;2023-12-20T05:00:29;101528.38;;;17.95;42.09
61710;BME280;73500;51.494;5.386;2023-12-20T05:02:55;101501.97;;;17.82;42.14
61710;BME280;73500;51.494;5.386;2023-12-20T05:05:20;101520.34;;;17.97;42.09
61710;BME280;73500;51.494;5.386;2023-12-20T05:07:46;101515.06;;;17.97;42.06
61710;BME280;73500;51.494;5.386;2023-12-20T05:10:11;101502.50;;;17.87;41.75
61710;BME280;73500;51.494;5.386;2023-12-20T05:12:36;101519.72;;;17.93;41.95
61710;BME280;73500;51.494;5.386;2023-12-20T05:15:02;101519.50;;;17.96;41.97
61710;BME280;73500;51.494;5.386;2023-12-20T05:17:27;101508.09;;;17.95;41.75
61710;BME280;73500;51.494;5.386;2023-12-20T05:19:52;101487.72;;;17.85;42.07
61710;BME280;73500;51.494;5.386;2023-12-20T05:22:19;101487.97;;;17.82;41.90
61710;BME280;73500;51.494;5.386;2023-12-20T05:24:45;101505.69;;;17.92;41.88
61710;BME280;73500;51.494;5.386;2023-12-20T05:27:10;101510.94;;;17.92;41.88
61710;BME280;73500;51.494;5.386;2023-12-20T05:29:36;101514.34;;;17.94;41.74
61710;BME280;73500;51.494;5.386;2023-12-20T05:32:01;101512.66;;;17.93;42.01
61710;BME280;73500;51.494;5.386;2023-12-20T05:34:28;101508.09;;;17.83;41.90
61710;BME280;73500;51.494;5.386;2023-12-20T05:36:53;101518.03;;;17.92;42.09
61710;BME280;73500;51.494;5.386;2023-12-20T05:39:19;101500.16;;;17.83;41.81
61710;BME280;73500;51.494;5.386;2023-12-20T05:41:44;101505.06;;;17.89;41.93
61710;BME280;73500;51.494;5.386;2023-12-20T05:44:09;101509.28;;;17.91;41.83
61710;BME280;73500;51.494;5.386;2023-12-20T05:46:35;101492.47;;;17.80;41.99
61710;BME280;73500;51.494;5.386;2023-12-20T05:49:01;101506.41;;;17.82;42.13
61710;BME280;73500;51.494;5.386;2023-12-20T05:51:28;101516.44;;;17.89;41.90
61710;BME280;73500;51.494;5.386;2023-12-20T05:53:53;101523.50;;;17.89;41.96
61710;BME280;73500;51.494;5.386;2023-12-20T05:56:18;101527.09;;;17.88;41.87
61710;BME280;73500;51.494;5.386;2023-12-20T05:58:44;101513.34;;;17.83;41.91
61710;BME280;73500;51.494;5.386;2023-12-20T06:01:09;101529.63;;;17.89;41.79
61710;BME280;73500;51.494;5.386;2023-12-20T06:03:34;101534.69;;;17.92;42.37
61710;BME280;73500;51.494;5.386;2023-12-20T06:06:06;101542.50;;;17.94;42.34
61710;BME280;73500;51.494;5.386;2023-12-20T06:08:32;101543.25;;;17.96;42.20
61710;BME280;73500;51.494;5.386;2023-12-20T06:10:57;101526.97;;;17.89;42.32
61710;BME280;73500;51.494;5.386;2023-12-20T06:13:22;101544.50;;;18.03;42.72
61710;BME280;73500;51.494;5.386;2023-12-20T06:15:48;101525.63;;;17.97;42.50
61710;BME280;73500;51.494;5.386;2023-12-20T06:18:13;101528.88;;;18.00;42.57
61710;BME280;73500;51.494;5.386;2023-12-20T06:20:38;101514.84;;;18.00;42.57
61710;BME280;73500;51.494;5.386;2023-12-20T06:23:03;101513.66;;;18.04;42.63
61710;BME280;73500;51.494;5.386;2023-12-20T06:25:29;101526.22;;;18.13;42.48
61710;BME280;73500;51.494;5.386;2023-12-20T06:27:54;101519.28;;;18.12;42.42
61710;BME280;73500;51.494;5.386;2023-12-20T06:30:19;101545.63;;;18.25;42.40
61710;BME280;73500;51.494;5.386;2023-12-20T06:32:45;101529.03;;;18.23;42.59
61710;BME280;73500;51.494;5.386;2023-12-20T06:35:12;101525.16;;;18.28;42.14
61710;BME280;73500;51.494;5.386;2023-12-20T06:37:37;101516.50;;;18.26;42.39
61710;BME280;73500;51.494;5.386;2023-12-20T06:40:02;101510.38;;;18.26;42.47
61710;BME280;73500;51.494;5.386;2023-12-20T06:42:28;101516.19;;;18.31;42.17
61710;BME280;73500;51.494;5.386;2023-12-20T06:44:53;101533.34;;;18.37;42.32
61710;BME280;73500;51.494;5.386;2023-12-20T06:47:18;101520.03;;;18.38;42.42
61710;BME280;73500;51.494;5.386;2023-12-20T06:49:44;101510.91;;;18.31;42.40
61710;BME280;73500;51.494;5.386;2023-12-20T06:52:10;101528.69;;;18.40;42.16
61710;BME280;73500;51.494;5.386;2023-12-20T06:54:35;101526.81;;;18.42;42.18
61710;BME280;73500;51.494;5.386;2023-12-20T06:57:01;101522.34;;;18.43;42.17
61710;BME280;73500;51.494;5.386;2023-12-20T06:59:28;101521.63;;;18.41;42.18
61710;BME280;73500;51.494;5.386;2023-12-20T07:01:53;101519.81;;;18.41;42.00
61710;BME280;73500;51.494;5.386;2023-12-20T07:04:19;101513.19;;;18.36;42.43
61710;BME280;73500;51.494;5.386;2023-12-20T07:06:47;101528.34;;;18.45;42.29
61710;BME280;73500;51.494;5.386;2023-12-20T07:09:13;101526.59;;;18.45;42.37
61710;BME280;73500;51.494;5.386;2023-12-20T07:11:38;101523.09;;;18.45;42.11
61710;BME280;73500;51.494;5.386;2023-12-20T07:14:03;101524.78;;;18.46;42.04
61710;BME280;73500;51.494;5.386;2023-12-20T07:16:29;101526.47;;;18.47;42.13
61710;BME280;73500;51.494;5.386;2023-12-20T07:18:54;101518.78;;;18.44;42.08
61710;BME280;73500;51.494;5.386;2023-12-20T07:21:20;101516.69;;;18.36;42.17
61710;BME280;73500;51.494;5.386;2023-12-20T07:23:45;101517.81;;;18.45;41.98
61710;BME280;73500;51.494;5.386;2023-12-20T07:26:10;101524.88;;;18.44;41.94
61710;BME280;73500;51.494;5.386;2023-12-20T07:28:36;101527.53;;;18.44;42.03
61710;BME280;73500;51.494;5.386;2023-12-20T07:31:01;101521.84;;;18.38;41.81
61710;BME280;73500;51.494;5.386;2023-12-20T07:33:27;101534.63;;;18.44;41.73
61710;BME280;73500;51.494;5.386;2023-12-20T07:35:52;101525.72;;;18.45;41.67
61710;BME280;73500;51.494;5.386;2023-12-20T07:38:18;101523.31;;;18.42;41.69
61710;BME280;73500;51.494;5.386;2023-12-20T07:40:43;101524.06;;;18.44;41.90
61710;BME280;73500;51.494;5.386;2023-12-20T07:43:08;101518.34;;;18.37;41.56
61710;BME280;73500;51.494;5.386;2023-12-20T07:45:34;101525.09;;;18.41;41.56
61710;BME280;73500;51.494;5.386;2023-12-20T07:48:00;101521.53;;;18.42;41.54
61710;BME280;73500;51.494;5.386;2023-12-20T07:50:25;101516.25;;;18.42;41.55
61710;BME280;73500;51.494;5.386;2023-12-20T07:52:51;101503.50;;;18.36;41.72
61710;BME280;73500;51.494;5.386;2023-12-20T07:55:16;101507.19;;;18.34;41.53
61710;BME280;73500;51.494;5.386;2023-12-20T07:57:42;101522.34;;;18.43;41.71
61710;BME280;73500;51.494;5.386;2023-12-20T08:00:07;101520.16;;;18.37;41.65
61710;BME280;73500;51.494;5.386;2023-12-20T08:02:33;101524.06;;;18.44;41.90
61710;BME280;73500;51.494;5.386;2023-12-20T08:04:58;101528.47;;;18.43;41.82
61710;BME280;73500;51.494;5.386;2023-12-20T08:07:23;101533.75;;;18.43;41.60
61710;BME280;73500;51.494;5.386;2023-12-20T08:09:49;101519.53;;;18.33;41.60
61710;BME280;73500;51.494;5.386;2023-12-20T08:12:14;101520.16;;;18.37;41.66
61710;BME280;73500;51.494;5.386;2023-12-20T08:14:42;101536.38;;;18.43;42.01
61710;BME280;73500;51.494;5.386;2023-12-20T08:17:07;101525.00;;;18.43;42.15
61710;BME280;73500;51.494;5.386;2023-12-20T08:19:32;101537.88;;;18.47;42.05
61710;BME280;73500;51.494;5.386;2023-12-20T08:21:57;101534.41;;;18.47;42.06
61710;BME280;73500;51.494;5.386;2023-12-20T08:24:23;101538.69;;;18.48;42.34
61710;BME280;73500;51.494;5.386;2023-12-20T08:26:48;101524.38;;;18.39;42.26
61710;BME280;73500;51.494;5.386;2023-12-20T08:29:13;101527.84;;;18.40;42.32
61710;BME280;73500;51.494;5.386;2023-12-20T08:31:39;101544.94;;;18.47;42.43
61710;BME280;73500;51.494;5.386;2023-12-20T08:34:04;101551.78;;;18.49;42.54
61710;BME280;73500;51.494;5.386;2023-12-20T08:36:30;101543.88;;;18.49;42.49
61710;BME280;73500;51.494;5.386;2023-12-20T08:38:55;101551.69;;;18.51;42.75
61710;BME280;73500;51.494;5.386;2023-12-20T08:41:20;101561.28;;;18.52;42.55
61710;BME280;73500;51.494;5.386;2023-12-20T08:43:46;101545.56;;;18.51;43.03
61710;BME280;73500;51.494;5.386;2023-12-20T08:46:11;101519.81;;;18.41;42.85
61710;BME280;73500;51.494;5.386;2023-12-20T08:48:37;101535.50;;;18.56;43.06
61710;BME280;73500;51.494;5.386;2023-12-20T08:51:04;101524.94;;;18.56;43.09
61710;BME280;73500;51.494;5.386;2023-12-20T08:53:29;101508.84;;;18.47;43.29
61710;BME280;73500;51.494;5.386;2023-12-20T08:55:54;101510.06;;;18.55;43.28
61710;BME280;73500;51.494;5.386;2023-12-20T08:58:20;101505.25;;;18.48;43.65
61710;BME280;73500;51.494;5.386;2023-12-20T09:00:45;101504.28;;;18.49;43.46
61710;BME280;73500;51.494;5.386;2023-12-20T09:03:11;101517.88;;;18.56;43.29
61710;BME280;73500;51.494;5.386;2023-12-20T09:05:36;101509.13;;;18.56;43.67
61710;BME280;73500;51.494;5.386;2023-12-20T09:08:02;101505.16;;;18.50;43.45
61710;BME280;73500;51.494;5.386;2023-12-20T09:10:27;101526.44;;;18.60;43.26
61710;BME280;73500;51.494;5.386;2023-12-20T09:12:53;101527.25;;;18.60;43.30
61710;BME280;73500;51.494;5.386;2023-12-20T09:15:26;101528.97;;;18.61;43.67
61710;BME280;73500;51.494;5.386;2023-12-20T09:17:52;101532.44;;;18.62;43.53
61710;BME280;73500;51.494;5.386;2023-12-20T09:20:18;101523.03;;;18.58;43.74
61710;BME280;73500;51.494;5.386;2023-12-20T09:22:43;101506.81;;;18.51;43.63
61710;BME280;73500;51.494;5.386;2023-12-20T09:25:09;101527.97;;;18.62;43.53
61710;BME280;73500;51.494;5.386;2023-12-20T09:27:37;101520.19;;;18.61;43.38
61710;BME280;73500;51.494;5.386;2023-12-20T09:30:02;101511.75;;;18.56;43.22
61710;BME280;73500;51.494;5.386;2023-12-20T09:32:29;101528.63;;;18.66;43.57
61710;BME280;73500;51.494;5.386;2023-12-20T09:34:54;101509.00;;;18.57;43.39
61710;BME280;73500;51.494;5.386;2023-12-20T09:37:20;101515.44;;;18.66;43.15
61710;BME280;73500;51.494;5.386;2023-12-20T09:39:45;101515.66;;;18.63;43.35
61710;BME280;73500;51.494;5.386;2023-12-20T09:42:11;101513.63;;;18.66;43.29
61710;BME280;73500;51.494;5.386;2023-12-20T09:44:37;101507.84;;;18.61;43.09
61710;BME280;73500;51.494;5.386;2023-12-20T09:47:06;101517.53;;;18.61;43.18
61710;BME280;73500;51.494;5.386;2023-12-20T09:49:32;101524.78;;;18.70;42.98
61710;BME280;73500;51.494;5.386;2023-12-20T09:52:00;101514.06;;;18.60;42.97
61710;BME280;73500;51.494;5.386;2023-12-20T09:54:27;101500.75;;;18.62;43.23
61710;BME280;73500;51.494;5.386;2023-12-20T09:56:53;101499.91;;;18.61;43.22
61710;BME280;73500;51.494;5.386;2023-12-20T09:59:19;101512.31;;;18.72;43.09
61710;BME280;73500;51.494;5.386;2023-12-20T10:01:44;101517.69;;;18.71;43.20
61710;BME280;73500;51.494;5.386;2023-12-20T10:04:12;101515.94;;;18.71;43.12
61710;BME280;73500;51.494;5.386;2023-12-20T10:06:42;101508.44;;;18.65;42.93
61710;BME280;73500;51.494;5.386;2023-12-20T10:09:09;101519.28;;;18.73;42.81
61710;BME280;73500;51.494;5.386;2023-12-20T10:11:38;101516.53;;;18.75;42.83
61710;BME280;73500;51.494;5.386;2023-12-20T10:14:04;101522.03;;;18.72;42.81
61710;BME280;73500;51.494;5.386;2023-12-20T10:16:31;101496.31;;;18.62;42.25
61710;BME280;73500;51.494;5.386;2023-12-20T10:18:58;101509.78;;;18.71;42.72
61710;BME280;73500;51.494;5.386;2023-12-20T10:21:23;101496.59;;;18.71;42.68
61710;BME280;73500;51.494;5.386;2023-12-20T10:23:51;101503.56;;;18.72;42.47
61710;BME280;73500;51.494;5.386;2023-12-20T10:26:20;101511.47;;;18.72;42.57
61710;BME280;73500;51.494;5.386;2023-12-20T10:28:46;101498.22;;;18.60;42.70
61710;BME280;73500;51.494;5.386;2023-12-20T10:31:34;101488.91;;;18.67;42.39
61710;BME280;73500;51.494;5.386;2023-12-20T10:34:01;101508.34;;;18.66;42.48
61710;BME280;73500;51.494;5.386;2023-12-20T10:36:28;101492.13;;;18.60;42.42
61710;BME280;73500;51.494;5.386;2023-12-20T10:38:55;101481.34;;;18.63;42.70
61710;BME280;73500;51.494;5.386;2023-12-20T10:41:30;101495.25;;;18.65;42.65
61710;BME280;73500;51.494;5.386;2023-12-20T10:44:01;101491.41;;;18.69;42.69
61710;BME280;73500;51.494;5.386;2023-12-20T10:46:30;101480.56;;;18.61;42.73
61710;BME280;73500;51.494;5.386;2023-12-20T10:48:57;101495.25;;;18.65;42.75
61710;BME280;73500;51.494;5.386;2023-12-20T10:51:23;101468.97;;;18.63;42.72
61710;BME280;73500;51.494;5.386;2023-12-20T10:53:51;101482.66;;;18.68;42.67
61710;BME280;73500;51.494;5.386;2023-12-20T10:56:18;101464.84;;;18.59;42.58
61710;BME280;73500;51.494;5.386;2023-12-20T10:58:48;101491.41;;;18.69;42.60
61710;BME280;73500;51.494;5.386;2023-12-20T11:01:14;101469.47;;;18.68;42.62
61710;BME280;73500;51.494;5.386;2023-12-20T11:03:44;101457.91;;;18.58;42.41
61710;BME280;73500;51.494;5.386;2023-12-20T11:06:37;101465.00;;;18.69;42.38
61710;BME280;73500;51.494;5.386;2023-12-20T11:09:28;101464.41;;;18.65;42.50
61710;BME280;73500;51.494;5.386;2023-12-20T11:12:16;101457.34;;;18.66;42.43
61710;BME280;73500;51.494;5.386;2023-12-20T11:14:49;101454.41;;;18.58;42.54
61710;BME280;73500;51.494;5.386;2023-12-20T11:17:15;101455.75;;;18.63;42.86
61710;BME280;73500;51.494;5.386;2023-12-20T11:22:19;101456.22;;;18.57;42.41
61710;BME280;73500;51.494;5.386;2023-12-20T11:24:45;101457.91;;;18.58;42.35
61710;BME280;73500;51.494;5.386;2023-12-20T11:27:12;101454.41;;;18.58;42.79
61710;BME280;73500;51.494;5.386;2023-12-20T11:29:38;101444.44;;;18.50;43.02
61710;BME280;73500;51.494;5.386;2023-12-20T11:34:54;101437.97;;;18.54;43.19
61710;BME280;73500;51.494;5.386;2023-12-20T11:37:21;101451.44;;;18.62;43.08
61710;BME280;73500;51.494;5.386;2023-12-20T11:39:55;101444.38;;;18.63;43.31
61710;BME280;73500;51.494;5.386;2023-12-20T11:42:20;101435.59;;;18.62;43.15
61710;BME280;73500;51.494;5.386;2023-12-20T11:44:45;101439.09;;;18.63;43.21
61710;BME280;73500;51.494;5.386;2023-12-20T11:47:13;101435.59;;;18.62;43.28
61710;BME280;73500;51.494;5.386;2023-12-20T11:49:39;101437.06;;;18.66;43.49
61710;BME280;73500;51.494;5.386;2023-12-20T11:52:04;101416.72;;;18.56;43.54
61710;BME280;73500;51.494;5.386;2023-12-20T11:54:30;101422.50;;;18.61;43.44
61710;BME280;73500;51.494;5.386;2023-12-20T11:56:55;101417.34;;;18.59;43.34
61710;BME280;73500;51.494;5.386;2023-12-20T11:59:21;101430.69;;;18.69;43.58
61710;BME280;73500;51.494;5.386;2023-12-20T12:01:50;101425.41;;;18.69;43.53
61710;BME280;73500;51.494;5.386;2023-12-20T12:04:16;101416.88;;;18.65;43.37
61710;BME280;73500;51.494;5.386;2023-12-20T12:06:43;101420.75;;;18.73;43.37
61710;BME280;73500;51.494;5.386;2023-12-20T12:09:08;101409.34;;;18.72;43.40
61710;BME280;73500;51.494;5.386;2023-12-20T12:11:34;101393.97;;;18.66;43.30
61710;BME280;73500;51.494;5.386;2023-12-20T12:13:59;101403.94;;;18.74;43.35
61710;BME280;73500;51.494;5.386;2023-12-20T12:16:26;101392.06;;;18.68;43.27
61710;BME280;73500;51.494;5.386;2023-12-20T12:18:58;101383.53;;;18.64;43.41
61710;BME280;73500;51.494;5.386;2023-12-20T12:21:24;101382.69;;;18.64;43.36
61710;BME280;73500;51.494;5.386;2023-12-20T12:23:50;101406.47;;;18.75;43.11
61710;BME280;73500;51.494;5.386;2023-12-20T12:26:15;101382.69;;;18.64;43.37
61710;BME280;73500;51.494;5.386;2023-12-20T12:28:41;101409.97;;;18.76;43.28
61710;BME280;73500;51.494;5.386;2023-12-20T12:31:07;101391.34;;;18.66;43.05
61710;BME280;73500;51.494;5.386;2023-12-20T12:33:33;101406.59;;;18.74;43.14
61710;BME280;73500;51.494;5.386;2023-12-20T12:36:02;101401.41;;;18.72;43.11
61710;BME280;73500;51.494;5.386;2023-12-20T12:38:30;101380.03;;;18.64;43.20
61710;BME280;73500;51.494;5.386;2023-12-20T12:40:56;101397.00;;;18.73;43.06
61710;BME280;73500;51.494;5.386;2023-12-20T12:43:21;101398.88;;;18.71;43.21
61710;BME280;73500;51.494;5.386;2023-12-20T12:45:48;101345.91;;;18.49;42.95
61710;BME280;73500;51.494;5.386;2023-12-20T12:48:14;101370.56;;;18.61;43.06
61710;BME280;73500;51.494;5.386;2023-12-20T12:50:59;101383.91;;;18.71;42.78